Time;durP1;ratioP1;P1;durP2;ratioP2;P2;SDS_P1;SDS_P2;PMS_P1;PMS_P2;Temp;Humidity;BMP_temperature;BMP_pressure;BME280_temperature;BME280_humidity;BME280_pressure;Samples;Min_cycle;Max_cycle;Signal;HPM_P1;HPM_P2
2021/08/02 00:05:15;;;;;;;3.28;1.58;;;23.50;30.60;;;;;;21203691;27;80743;-73
2021/08/02 00:15:19;;;;;;;3.28;1.13;;;23.40;31.40;;;;;;21202740;27;80825;-74
2021/08/02 00:25:21;;;;;;;2.42;1.42;;;23.30;31.40;;;;;;21215548;27;80513;-73
2021/08/02 00:35:23;;;;;;;4.15;1.77;;;23.00;31.60;;;;;;21234599;27;80632;-72
2021/08/02 00:45:33;;;;;;;2.22;0.80;;;22.70;32.10;;;;;;21215543;27;80040;-73
2021/08/02 00:55:41;;;;;;;3.75;1.42;;;22.30;32.50;;;;;;21214993;27;80923;-72
2021/08/02 01:05:48;;;;;;;3.28;1.40;;;21.90;33.40;;;;;;21214471;27;81716;-74
2021/08/02 01:15:55;;;;;;;4.30;1.30;;;21.80;33.70;;;;;;21214959;27;81021;-73
2021/08/02 01:25:57;;;;;;;2.70;1.20;;;21.70;34.70;;;;;;21233779;27;80878;-73
2021/08/02 01:36:04;;;;;;;5.33;3.23;;;21.50;34.90;;;;;;21212994;27;81669;-72
2021/08/02 01:46:24;;;;;;;3.30;1.33;;;21.50;36.00;;;;;;21212073;27;80755;-72
2021/08/02 01:57:06;;;;;;;4.28;1.08;;;21.50;35.70;;;;;;21212192;27;80869;-73
2021/08/02 02:07:12;;;;;;;2.20;1.08;;;21.50;36.50;;;;;;21208676;27;81007;-73
2021/08/02 02:17:20;;;;;;;3.78;1.00;;;21.40;36.60;;;;;;21210395;27;80946;-72
2021/08/02 02:27:23;;;;;;;5.15;1.02;;;21.40;36.60;;;;;;21209600;27;79918;-72
2021/08/02 02:37:29;;;;;;;4.28;1.40;;;21.30;36.40;;;;;;21227240;27;80846;-73
2021/08/02 02:47:33;;;;;;;2.78;1.35;;;21.20;36.30;;;;;;21225765;27;80918;-72
2021/08/02 02:57:38;;;;;;;3.50;1.15;;;21.10;38.00;;;;;;21206167;27;81145;-75
2021/08/02 03:07:54;;;;;;;2.88;1.08;;;21.00;37.90;;;;;;21208512;27;80592;-73
2021/08/02 03:18:01;;;;;;;4.30;1.60;;;20.90;39.90;;;;;;21207819;27;80031;-71
2021/08/02 03:28:22;;;;;;;3.63;1.40;;;20.70;41.20;;;;;;21225508;27;81057;-72
2021/08/02 03:38:49;;;;;;;2.38;0.95;;;20.60;40.50;;;;;;21225415;27;82518;-72
2021/08/02 03:48:54;;;;;;;3.95;1.50;;;20.50;42.20;;;;;;21205275;27;81915;-74
2021/08/02 03:59:01;;;;;;;9.15;2.53;;;20.40;42.20;;;;;;21233448;27;81137;-74
2021/08/02 04:09:12;;;;;;;4.53;1.52;;;20.30;46.30;;;;;;21220491;27;81941;-73
2021/08/02 04:19:24;;;;;;;3.80;1.48;;;20.30;45.80;;;;;;21220262;27;81866;-73
2021/08/02 04:29:42;;;;;;;2.55;1.25;;;20.20;44.30;;;;;;21220248;27;81658;-74
2021/08/02 04:40:05;;;;;;;4.40;1.50;;;20.10;43.90;;;;;;21220759;27;80381;-73
2021/08/02 04:50:26;;;;;;;4.07;1.10;;;20.00;44.20;;;;;;21218308;27;80408;-71
2021/08/02 05:00:41;;;;;;;3.50;1.50;;;19.90;44.10;;;;;;21232923;27;80848;-76
2021/08/02 05:10:51;;;;;;;4.20;1.17;;;19.80;44.10;;;;;;21215229;27;80471;-72
2021/08/02 05:21:04;;;;;;;3.10;1.40;;;19.70;44.00;;;;;;21200078;27;81558;-72
2021/08/02 05:31:10;;;;;;;5.53;2.03;;;19.60;46.30;;;;;;21212838;27;81360;-72
2021/08/02 05:41:16;;;;;;;5.53;1.40;;;19.60;45.80;;;;;;21205685;27;81422;-73
2021/08/02 05:51:20;;;;;;;4.15;1.65;;;19.50;45.60;;;;;;21200511;27;82021;-72
2021/08/02 06:01:24;;;;;;;12.20;2.10;;;19.60;46.90;;;;;;21217254;27;81380;-72
2021/08/02 06:11:27;;;;;;;7.32;1.92;;;19.60;46.60;;;;;;21197730;27;81368;-72
2021/08/02 06:21:30;;;;;;;3.35;1.65;;;19.80;46.40;;;;;;21193431;27;81873;-73
2021/08/02 06:31:34;;;;;;;6.03;1.80;;;20.00;46.10;;;;;;21195846;27;81804;-72
2021/08/02 06:41:38;;;;;;;3.17;1.20;;;20.20;46.10;;;;;;21215391;27;81758;-72
2021/08/02 06:51:42;;;;;;;4.80;1.50;;;20.40;45.10;;;;;;21196150;27;81337;-74
2021/08/02 07:01:46;;;;;;;2.55;1.17;;;20.50;45.30;;;;;;21198639;27;81412;-65
2021/08/02 07:11:48;;;;;;;5.85;1.85;;;20.70;45.20;;;;;;21197551;27;81832;-65
2021/08/02 07:21:56;;;;;;;4.30;1.52;;;21.00;46.00;;;;;;21192668;27;81806;-65
2021/08/02 07:31:59;;;;;;;4.85;1.60;;;21.40;45.30;;;;;;21218043;27;81062;-67
2021/08/02 07:42:02;;;;;;;4.15;1.40;;;21.50;45.10;;;;;;21206631;27;81336;-65
2021/08/02 07:52:05;;;;;;;4.35;1.80;;;21.80;44.90;;;;;;21209255;27;82222;-64
2021/08/02 08:02:09;;;;;;;4.55;2.25;;;22.00;45.90;;;;;;21209255;27;80862;-66
2021/08/02 08:12:13;;;;;;;6.68;2.10;;;22.30;46.20;;;;;;21225967;27;81350;-67
2021/08/02 08:22:22;;;;;;;5.47;2.30;;;22.60;46.20;;;;;;21206001;27;81114;-66
2021/08/02 08:32:25;;;;;;;6.50;2.60;;;22.90;46.10;;;;;;21204173;27;81649;-65
2021/08/02 08:42:29;;;;;;;9.68;3.47;;;23.10;46.80;;;;;;21223237;27;81839;-67
2021/08/02 08:52:34;;;;;;;10.13;2.47;;;23.50;46.90;;;;;;21200419;27;81994;-68
2021/08/02 09:02:41;;;;;;;10.30;2.25;;;23.80;46.10;;;;;;21204124;27;80624;-70
2021/08/02 09:12:51;;;;;;;;;;;24.10;46.10;;;;;;21203452;27;81507;-66
2021/08/02 09:23:02;;;;;;;10.18;2.50;;;24.40;45.60;;;;;;21225716;27;82224;-67
2021/08/02 09:33:07;;;;;;;8.10;3.00;;;24.70;44.40;;;;;;21197712;27;81688;-67
2021/08/02 09:43:14;;;;;;;9.70;3.25;;;25.00;43.50;;;;;;21219561;27;81157;-67
2021/08/02 09:53:20;;;;;;;7.55;2.47;;;25.00;43.70;;;;;;21200008;27;81805;-69
2021/08/02 10:03:27;;;;;;;12.18;2.85;;;25.50;42.80;;;;;;21200226;27;81164;-70
2021/08/02 10:13:35;;;;;;;10.18;2.65;;;26.00;42.10;;;;;;21198774;27;81339;-69
2021/08/02 10:23:38;;;;;;;11.75;2.55;;;26.90;40.60;;;;;;21198035;27;81060;-69
2021/08/02 10:33:41;;;;;;;9.10;2.70;;;27.90;38.10;;;;;;21193055;27;81981;-69
2021/08/02 10:43:44;;;;;;;4.93;2.55;;;29.00;35.70;;;;;;21196373;27;81281;-70
2021/08/02 10:54:03;;;;;;;7.95;3.50;;;30.30;34.10;;;;;;21215242;27;81573;-69
2021/08/02 11:04:31;;;;;;;11.23;2.80;;;31.30;32.20;;;;;;21190500;27;81935;-68
2021/08/02 11:14:53;;;;;;;10.55;3.00;;;34.20;28.50;;;;;;21194333;27;81356;-68
2021/08/02 11:25:00;;;;;;;8.65;2.60;;;36.50;25.30;;;;;;21190301;27;82761;-68
2021/08/02 11:35:03;;;;;;;8.10;2.80;;;39.40;22.00;;;;;;21210786;27;81143;-68
2021/08/02 11:45:07;;;;;;;5.65;2.30;;;42.50;19.20;;;;;;21192290;27;81150;-69
2021/08/02 11:55:13;;;;;;;7.35;3.17;;;44.60;17.40;;;;;;21193256;27;81431;-71
2021/08/02 12:05:24;;;;;;;13.55;3.75;;;46.40;16.50;;;;;;21206363;27;81501;-69
2021/08/02 12:15:27;;;;;;;5.30;2.90;;;48.00;15.90;;;;;;21213614;27;81244;-69
2021/08/02 12:25:37;;;;;;;5.00;2.42;;;47.10;15.90;;;;;;21201894;27;81550;-70
2021/08/02 12:35:43;;;;;;;3.70;2.47;;;47.30;15.10;;;;;;21223993;27;81356;-70
2021/08/02 12:45:46;;;;;;;5.13;2.40;;;49.40;13.80;;;;;;21203863;27;81006;-70
2021/08/02 12:55:48;;;;;;;8.77;3.33;;;48.40;14.60;;;;;;21208891;27;81447;-70
2021/08/02 13:05:50;;;;;;;5.25;3.35;;;52.00;12.90;;;;;;21214386;27;80892;-68
2021/08/02 13:15:52;;;;;;;6.15;3.42;;;53.50;13.00;;;;;;21231850;27;80789;-70
2021/08/02 13:36:16;;;;;;;4.50;3.47;;;49.10;13.40;;;;;;21230961;27;80803;-63
2021/08/02 13:46:18;;;;;;;25.33;8.07;;;53.50;11.90;;;;;;21230243;27;81086;-65
2021/08/02 13:56:23;;;;;;;4.50;3.40;;;47.70;15.00;;;;;;21210042;27;80575;-64
2021/08/02 14:06:25;;;;;;;6.18;4.35;;;53.20;12.00;;;;;;21210281;27;80974;-64
2021/08/02 14:16:33;;;;;;;8.37;5.33;;;54.50;11.40;;;;;;21227589;27;80727;-64
2021/08/02 14:26:36;;;;;;;10.00;4.68;;;51.70;11.90;;;;;;21208887;27;82115;-68
2021/08/02 14:36:41;;;;;;;8.18;3.60;;;46.70;14.10;;;;;;21224832;27;82098;-62
2021/08/02 14:46:51;;;;;;;5.82;3.55;;;45.60;14.10;;;;;;21206558;27;80643;-66
2021/08/02 14:56:53;;;;;;;3.95;2.90;;;50.90;12.20;;;;;;21206612;27;79896;-67
2021/08/02 15:06:56;;;;;;;6.85;3.15;;;53.00;11.50;;;;;;21210740;27;79918;-64
2021/08/02 15:17:00;;;;;;;6.30;2.90;;;46.40;14.20;;;;;;21209926;27;79957;-63
2021/08/02 15:27:04;;;;;;;3.47;2.53;;;41.50;15.30;;;;;;21209458;27;82131;-61
2021/08/02 15:37:10;;;;;;;3.13;2.10;;;38.30;16.10;;;;;;21225874;27;81217;-62
2021/08/02 15:47:18;;;;;;;5.20;2.28;;;37.00;17.20;;;;;;21206145;27;80550;-62
2021/08/02 15:57:22;;;;;;;2.60;1.70;;;36.20;17.40;;;;;;21238495;27;81095;-63
2021/08/02 16:07:24;;;;;;;2.45;1.90;;;35.90;18.20;;;;;;21238802;27;80785;-63
2021/08/02 16:17:28;;;;;;;3.65;1.92;;;34.70;18.80;;;;;;21219606;27;81844;-62
2021/08/02 16:27:31;;;;;;;5.00;2.05;;;38.00;16.00;;;;;;21218298;27;80599;-63
2021/08/02 16:37:33;;;;;;;3.55;2.45;;;38.30;15.80;;;;;;21217937;27;81277;-61
2021/08/02 16:47:35;;;;;;;3.95;1.77;;;39.30;15.20;;;;;;21217172;27;79971;-62
2021/08/02 16:57:37;;;;;;;2.20;1.38;;;36.70;17.50;;;;;;21216802;27;80554;-63
2021/08/02 17:07:39;;;;;;;2.10;1.40;;;35.30;17.40;;;;;;21232995;27;80990;-62
2021/08/02 17:17:41;;;;;;;2.55;1.50;;;34.50;16.50;;;;;;21214815;27;80951;-63
2021/08/02 17:27:43;;;;;;;1.70;1.20;;;34.50;18.10;;;;;;21216053;27;80647;-62
2021/08/02 17:37:45;;;;;;;5.78;1.60;;;33.60;17.10;;;;;;21215045;27;83333;-61
2021/08/02 17:47:47;;;;;;;2.70;1.77;;;33.20;17.70;;;;;;21213364;27;81705;-65
2021/08/02 17:57:49;;;;;;;2.03;1.30;;;32.70;19.10;;;;;;21212157;27;80940;-64
2021/08/02 18:07:51;;;;;;;2.85;1.83;;;36.20;15.40;;;;;;21211786;27;82035;-62
2021/08/02 18:17:52;;;;;;;3.55;1.58;;;36.30;15.40;;;;;;21211084;27;82243;-63
2021/08/02 18:27:54;;;;;;;5.00;1.70;;;38.30;15.50;;;;;;21229554;27;81840;-63
2021/08/02 18:37:56;;;;;;;4.30;1.50;;;36.40;16.50;;;;;;21211742;27;83878;-64
2021/08/02 18:48:01;;;;;;;2.95;1.60;;;34.20;17.80;;;;;;21208915;27;80395;-62
2021/08/02 18:58:02;;;;;;;3.53;2.30;;;33.00;18.10;;;;;;21209471;27;81844;-66
2021/08/02 19:08:05;;;;;;;3.65;2.20;;;31.10;20.80;;;;;;21208210;27;79990;-65
2021/08/02 19:18:10;;;;;;;4.03;1.98;;;30.30;20.60;;;;;;21226006;27;80650;-62
2021/08/02 19:28:22;;;;;;;3.58;2.17;;;29.80;20.80;;;;;;21236323;27;79857;-62
2021/08/02 19:38:24;;;;;;;4.45;1.75;;;29.40;22.60;;;;;;21222365;27;80847;-64
2021/08/02 19:48:32;;;;;;;3.53;2.28;;;29.00;20.70;;;;;;21239750;27;81099;-63
2021/08/02 19:58:38;;;;;;;3.88;2.35;;;28.80;21.80;;;;;;21240272;27;81057;-65
2021/08/02 20:08:41;;;;;;;4.32;2.97;;;28.40;22.10;;;;;;21221746;27;81727;-70
2021/08/02 20:18:43;;;;;;;6.60;2.75;;;28.10;22.80;;;;;;21220268;27;82054;-66
2021/08/02 20:29:01;;;;;;;5.80;2.95;;;27.90;23.50;;;;;;21219057;27;80088;-62
2021/08/02 20:39:06;;;;;;;9.68;3.35;;;27.70;23.90;;;;;;21216371;27;80772;-68
2021/08/02 20:49:10;;;;;;;7.72;3.72;;;27.40;24.40;;;;;;21218154;27;80855;-71
2021/08/02 20:59:12;;;;;;;8.75;3.95;;;27.20;25.10;;;;;;21235477;27;80781;-71
2021/08/02 21:09:21;;;;;;;6.60;3.63;;;27.00;25.90;;;;;;21217430;27;81138;-71
2021/08/02 21:19:29;;;;;;;10.98;5.13;;;26.80;26.50;;;;;;21235778;27;80879;-72
2021/08/02 21:29:35;;;;;;;11.10;4.35;;;26.50;27.30;;;;;;21215362;27;80942;-73
2021/08/02 21:39:48;;;;;;;7.95;4.30;;;26.30;27.90;;;;;;21215225;27;80744;-71
2021/08/02 21:49:49;;;;;;;11.80;5.70;;;26.20;28.30;;;;;;21212797;27;80953;-72
2021/08/02 21:59:51;;;;;;;14.60;5.85;;;25.90;28.90;;;;;;21213823;27;80899;-71
2021/08/02 22:09:53;;;;;;;9.85;6.05;;;25.80;28.40;;;;;;21211629;27;80644;-72
2021/08/02 22:19:56;;;;;;;8.93;5.28;;;25.60;29.70;;;;;;21210891;27;81991;-71
2021/08/02 22:29:58;;;;;;;7.78;3.08;;;25.50;29.60;;;;;;21210264;27;80685;-72
2021/08/02 22:40:02;;;;;;;5.53;2.95;;;25.30;28.90;;;;;;21228659;27;80675;-71
2021/08/02 22:50:04;;;;;;;3.92;2.45;;;25.20;29.00;;;;;;21209356;27;80825;-74
2021/08/02 23:00:10;;;;;;;4.72;2.65;;;25.00;29.30;;;;;;21208499;27;80783;-72
2021/08/02 23:10:14;;;;;;;6.38;2.40;;;24.80;29.50;;;;;;21207895;27;80622;-71
2021/08/02 23:20:18;;;;;;;7.05;2.53;;;24.50;30.10;;;;;;21225948;27;80113;-72
2021/08/02 23:30:25;;;;;;;8.23;2.78;;;24.40;30.40;;;;;;21207950;27;80389;-71
2021/08/02 23:40:31;;;;;;;8.35;2.90;;;24.20;31.50;;;;;;21206539;27;80507;-71
2021/08/02 23:50:33;;;;;;;5.55;2.78;;;24.10;31.40;;;;;;21205828;27;81024;-72
